sensor_id;sensor_type;location;lat;lon;timestamp;P1;durP1;ratioP1;P2;durP2;ratioP2
10701;SDS011;5402;50.004;8.246;2023-03-01T00:00:01;10.83;;;5.83;;
10701;SDS011;5402;50.004;8.246;2023-03-01T00:02:29;11.23;;;5.90;;
10701;SDS011;5402;50.004;8.246;2023-03-01T00:04:56;10.30;;;6.03;;
10701;SDS011;5402;50.004;8.246;2023-03-01T00:07:23;11.87;;;6.10;;
10701;SDS011;5402;50.004;8.246;2023-03-01T00:09:49;10.10;;;5.93;;
10701;SDS011;5402;50.004;8.246;2023-03-01T00:12:17;10.23;;;5.80;;
10701;SDS011;5402;50.004;8.246;2023-03-01T00:14:44;11.03;;;6.20;;
10701;SDS011;5402;50.004;8.246;2023-03-01T00:17:11;10.30;;;6.20;;
10701;SDS011;5402;50.004;8.246;2023-03-01T00:19:38;12.13;;;6.13;;
10701;SDS011;5402;50.004;8.246;2023-03-01T00:22:04;8.23;;;5.63;;
10701;SDS011;5402;50.004;8.246;2023-03-01T00:24:33;8.97;;;6.43;;
10701;SDS011;5402;50.004;8.246;2023-03-01T00:27:00;9.67;;;6.40;;
10701;SDS011;5402;50.004;8.246;2023-03-01T00:29:28;11.30;;;6.10;;
10701;SDS011;5402;50.004;8.246;2023-03-01T00:31:54;9.93;;;6.33;;
10701;SDS011;5402;50.004;8.246;2023-03-01T00:34:21;9.07;;;6.20;;
10701;SDS011;5402;50.004;8.246;2023-03-01T00:36:48;10.40;;;6.50;;
10701;SDS011;5402;50.004;8.246;2023-03-01T00:39:15;9.40;;;6.33;;
10701;SDS011;5402;50.004;8.246;2023-03-01T00:41:42;9.93;;;6.07;;
10701;SDS011;5402;50.004;8.246;2023-03-01T00:44:09;10.30;;;6.30;;
10701;SDS011;5402;50.004;8.246;2023-03-01T00:46:39;11.17;;;6.63;;
10701;SDS011;5402;50.004;8.246;2023-03-01T00:49:06;10.33;;;6.33;;
10701;SDS011;5402;50.004;8.246;2023-03-01T00:51:33;12.97;;;6.63;;
10701;SDS011;5402;50.004;8.246;2023-03-01T00:54:01;9.77;;;6.27;;
10701;SDS011;5402;50.004;8.246;2023-03-01T00:56:28;13.83;;;6.33;;
10701;SDS011;5402;50.004;8.246;2023-03-01T00:58:55;11.33;;;6.87;;
10701;SDS011;5402;50.004;8.246;2023-03-01T01:01:23;12.83;;;6.40;;
10701;SDS011;5402;50.004;8.246;2023-03-01T01:03:54;9.87;;;6.30;;
10701;SDS011;5402;50.004;8.246;2023-03-01T01:06:22;10.63;;;6.73;;
10701;SDS011;5402;50.004;8.246;2023-03-01T01:08:50;9.33;;;6.23;;
10701;SDS011;5402;50.004;8.246;2023-03-01T01:11:19;10.70;;;6.30;;
10701;SDS011;5402;50.004;8.246;2023-03-01T01:13:47;10.67;;;6.60;;
10701;SDS011;5402;50.004;8.246;2023-03-01T01:16:15;9.83;;;6.30;;
10701;SDS011;5402;50.004;8.246;2023-03-01T01:18:42;9.40;;;6.23;;
10701;SDS011;5402;50.004;8.246;2023-03-01T01:21:11;10.40;;;6.97;;
10701;SDS011;5402;50.004;8.246;2023-03-01T01:23:40;10.13;;;6.17;;
10701;SDS011;5402;50.004;8.246;2023-03-01T01:26:09;10.00;;;6.70;;
10701;SDS011;5402;50.004;8.246;2023-03-01T01:28:37;11.37;;;7.03;;
10701;SDS011;5402;50.004;8.246;2023-03-01T01:31:04;9.70;;;6.40;;
10701;SDS011;5402;50.004;8.246;2023-03-01T01:33:32;11.80;;;7.00;;
10701;SDS011;5402;50.004;8.246;2023-03-01T01:35:59;10.27;;;6.30;;
10701;SDS011;5402;50.004;8.246;2023-03-01T01:38:27;11.50;;;6.60;;
10701;SDS011;5402;50.004;8.246;2023-03-01T01:40:54;11.83;;;6.77;;
10701;SDS011;5402;50.004;8.246;2023-03-01T01:43:22;11.93;;;6.53;;
10701;SDS011;5402;50.004;8.246;2023-03-01T01:45:51;11.70;;;6.77;;
10701;SDS011;5402;50.004;8.246;2023-03-01T01:48:22;12.43;;;7.00;;
10701;SDS011;5402;50.004;8.246;2023-03-01T01:51:05;12.37;;;6.70;;
10701;SDS011;5402;50.004;8.246;2023-03-01T01:53:36;9.40;;;6.50;;
10701;SDS011;5402;50.004;8.246;2023-03-01T01:56:05;11.57;;;6.13;;
10701;SDS011;5402;50.004;8.246;2023-03-01T01:58:34;10.70;;;6.53;;
10701;SDS011;5402;50.004;8.246;2023-03-01T02:01:03;11.53;;;7.13;;
10701;SDS011;5402;50.004;8.246;2023-03-01T02:03:31;11.30;;;6.40;;
10701;SDS011;5402;50.004;8.246;2023-03-01T02:06:03;11.27;;;7.37;;
10701;SDS011;5402;50.004;8.246;2023-03-01T02:08:33;12.40;;;6.83;;
10701;SDS011;5402;50.004;8.246;2023-03-01T02:11:04;11.27;;;6.93;;
10701;SDS011;5402;50.004;8.246;2023-03-01T02:13:32;11.13;;;6.93;;
10701;SDS011;5402;50.004;8.246;2023-03-01T02:16:02;10.33;;;7.03;;
10701;SDS011;5402;50.004;8.246;2023-03-01T02:18:29;11.20;;;7.17;;
10701;SDS011;5402;50.004;8.246;2023-03-01T02:21:03;10.43;;;6.67;;
10701;SDS011;5402;50.004;8.246;2023-03-01T02:23:41;13.53;;;7.47;;
10701;SDS011;5402;50.004;8.246;2023-03-01T02:26:11;11.33;;;6.80;;
10701;SDS011;5402;50.004;8.246;2023-03-01T02:28:45;12.40;;;7.73;;
10701;SDS011;5402;50.004;8.246;2023-03-01T02:31:14;11.47;;;6.87;;
10701;SDS011;5402;50.004;8.246;2023-03-01T02:34:01;10.47;;;6.73;;
10701;SDS011;5402;50.004;8.246;2023-03-01T02:36:30;12.43;;;7.23;;
10701;SDS011;5402;50.004;8.246;2023-03-01T02:39:03;11.97;;;7.43;;
10701;SDS011;5402;50.004;8.246;2023-03-01T02:41:34;12.63;;;7.07;;
10701;SDS011;5402;50.004;8.246;2023-03-01T02:44:04;13.23;;;7.83;;
10701;SDS011;5402;50.004;8.246;2023-03-01T02:46:31;11.83;;;6.63;;
10701;SDS011;5402;50.004;8.246;2023-03-01T02:48:58;13.53;;;7.43;;
10701;SDS011;5402;50.004;8.246;2023-03-01T02:51:41;12.83;;;7.10;;
10701;SDS011;5402;50.004;8.246;2023-03-01T02:54:16;13.37;;;8.17;;
10701;SDS011;5402;50.004;8.246;2023-03-01T02:56:48;13.67;;;7.90;;
10701;SDS011;5402;50.004;8.246;2023-03-01T02:59:16;13.93;;;7.47;;
10701;SDS011;5402;50.004;8.246;2023-03-01T03:01:46;12.00;;;7.20;;
10701;SDS011;5402;50.004;8.246;2023-03-01T03:04:13;10.43;;;7.13;;
10701;SDS011;5402;50.004;8.246;2023-03-01T03:06:42;12.23;;;7.47;;
10701;SDS011;5402;50.004;8.246;2023-03-01T03:09:09;11.57;;;7.53;;
10701;SDS011;5402;50.004;8.246;2023-03-01T03:11:36;9.87;;;7.17;;
10701;SDS011;5402;50.004;8.246;2023-03-01T03:14:04;13.27;;;7.67;;
10701;SDS011;5402;50.004;8.246;2023-03-01T03:16:38;11.47;;;6.70;;
10701;SDS011;5402;50.004;8.246;2023-03-01T03:19:06;11.53;;;6.93;;
10701;SDS011;5402;50.004;8.246;2023-03-01T03:21:33;16.13;;;8.10;;
10701;SDS011;5402;50.004;8.246;2023-03-01T03:24:00;13.63;;;7.27;;
10701;SDS011;5402;50.004;8.246;2023-03-01T03:26:27;11.97;;;7.17;;
10701;SDS011;5402;50.004;8.246;2023-03-01T03:28:54;12.47;;;7.47;;
10701;SDS011;5402;50.004;8.246;2023-03-01T03:31:22;10.07;;;6.90;;
10701;SDS011;5402;50.004;8.246;2023-03-01T03:33:50;12.70;;;7.63;;
10701;SDS011;5402;50.004;8.246;2023-03-01T03:36:17;14.97;;;8.37;;
10701;SDS011;5402;50.004;8.246;2023-03-01T03:38:45;15.53;;;7.43;;
10701;SDS011;5402;50.004;8.246;2023-03-01T03:41:13;11.77;;;7.23;;
10701;SDS011;5402;50.004;8.246;2023-03-01T03:43:41;11.47;;;7.30;;
10701;SDS011;5402;50.004;8.246;2023-03-01T03:46:10;11.50;;;7.50;;
10701;SDS011;5402;50.004;8.246;2023-03-01T03:48:38;13.57;;;7.37;;
10701;SDS011;5402;50.004;8.246;2023-03-01T03:51:11;10.53;;;7.30;;
10701;SDS011;5402;50.004;8.246;2023-03-01T03:53:38;10.63;;;7.30;;
10701;SDS011;5402;50.004;8.246;2023-03-01T03:56:06;13.37;;;7.57;;
10701;SDS011;5402;50.004;8.246;2023-03-01T03:58:33;12.13;;;7.87;;
10701;SDS011;5402;50.004;8.246;2023-03-01T04:01:00;11.47;;;7.20;;
10701;SDS011;5402;50.004;8.246;2023-03-01T04:03:28;14.10;;;7.90;;
10701;SDS011;5402;50.004;8.246;2023-03-01T04:05:56;11.67;;;7.50;;
10701;SDS011;5402;50.004;8.246;2023-03-01T04:08:25;12.47;;;7.77;;
10701;SDS011;5402;50.004;8.246;2023-03-01T04:10:57;11.57;;;7.57;;
10701;SDS011;5402;50.004;8.246;2023-03-01T04:13:25;13.03;;;7.93;;
10701;SDS011;5402;50.004;8.246;2023-03-01T04:15:52;12.13;;;7.63;;
10701;SDS011;5402;50.004;8.246;2023-03-01T04:18:20;11.27;;;7.33;;
10701;SDS011;5402;50.004;8.246;2023-03-01T04:20:49;13.17;;;7.60;;
10701;SDS011;5402;50.004;8.246;2023-03-01T04:23:20;11.37;;;7.13;;
10701;SDS011;5402;50.004;8.246;2023-03-01T04:25:50;13.73;;;8.23;;
10701;SDS011;5402;50.004;8.246;2023-03-01T04:28:20;14.07;;;8.30;;
10701;SDS011;5402;50.004;8.246;2023-03-01T04:30:49;15.83;;;7.77;;
10701;SDS011;5402;50.004;8.246;2023-03-01T04:33:16;15.70;;;8.40;;
10701;SDS011;5402;50.004;8.246;2023-03-01T04:35:44;16.53;;;7.63;;
10701;SDS011;5402;50.004;8.246;2023-03-01T04:38:11;12.57;;;8.00;;
10701;SDS011;5402;50.004;8.246;2023-03-01T04:40:38;14.33;;;8.10;;
10701;SDS011;5402;50.004;8.246;2023-03-01T04:43:09;13.90;;;8.20;;
10701;SDS011;5402;50.004;8.246;2023-03-01T04:45:36;12.40;;;7.57;;
10701;SDS011;5402;50.004;8.246;2023-03-01T04:48:03;13.80;;;7.77;;
10701;SDS011;5402;50.004;8.246;2023-03-01T04:50:31;13.47;;;8.17;;
10701;SDS011;5402;50.004;8.246;2023-03-01T04:52:57;13.83;;;7.27;;
10701;SDS011;5402;50.004;8.246;2023-03-01T04:55:24;14.47;;;7.90;;
10701;SDS011;5402;50.004;8.246;2023-03-01T04:57:52;14.17;;;8.03;;
10701;SDS011;5402;50.004;8.246;2023-03-01T05:00:21;13.93;;;8.30;;
10701;SDS011;5402;50.004;8.246;2023-03-01T05:02:49;15.37;;;7.93;;
10701;SDS011;5402;50.004;8.246;2023-03-01T05:05:19;15.17;;;7.60;;
10701;SDS011;5402;50.004;8.246;2023-03-01T05:07:50;14.57;;;7.87;;
10701;SDS011;5402;50.004;8.246;2023-03-01T05:10:17;15.33;;;8.57;;
10701;SDS011;5402;50.004;8.246;2023-03-01T05:12:44;14.33;;;8.23;;
10701;SDS011;5402;50.004;8.246;2023-03-01T05:15:11;15.30;;;8.30;;
10701;SDS011;5402;50.004;8.246;2023-03-01T05:17:40;12.87;;;7.93;;
10701;SDS011;5402;50.004;8.246;2023-03-01T05:20:07;16.80;;;8.30;;
10701;SDS011;5402;50.004;8.246;2023-03-01T05:22:36;12.80;;;8.40;;
10701;SDS011;5402;50.004;8.246;2023-03-01T05:25:03;14.57;;;8.17;;
10701;SDS011;5402;50.004;8.246;2023-03-01T05:27:30;14.67;;;8.30;;
10701;SDS011;5402;50.004;8.246;2023-03-01T05:29:57;11.93;;;7.70;;
10701;SDS011;5402;50.004;8.246;2023-03-01T05:32:23;14.93;;;8.53;;
10701;SDS011;5402;50.004;8.246;2023-03-01T05:34:52;15.33;;;8.47;;
10701;SDS011;5402;50.004;8.246;2023-03-01T05:37:20;13.37;;;8.57;;
10701;SDS011;5402;50.004;8.246;2023-03-01T05:39:46;14.53;;;8.17;;
10701;SDS011;5402;50.004;8.246;2023-03-01T05:42:15;14.67;;;8.30;;
10701;SDS011;5402;50.004;8.246;2023-03-01T05:44:42;13.83;;;7.93;;
10701;SDS011;5402;50.004;8.246;2023-03-01T05:47:08;13.90;;;8.10;;
10701;SDS011;5402;50.004;8.246;2023-03-01T05:49:35;16.73;;;8.33;;
10701;SDS011;5402;50.004;8.246;2023-03-01T05:52:03;15.90;;;8.70;;
10701;SDS011;5402;50.004;8.246;2023-03-01T05:54:30;16.47;;;8.17;;
10701;SDS011;5402;50.004;8.246;2023-03-01T05:56:57;14.57;;;8.07;;
10701;SDS011;5402;50.004;8.246;2023-03-01T05:59:23;16.33;;;9.00;;
10701;SDS011;5402;50.004;8.246;2023-03-01T06:01:50;14.63;;;9.03;;
10701;SDS011;5402;50.004;8.246;2023-03-01T06:04:17;14.83;;;8.93;;
10701;SDS011;5402;50.004;8.246;2023-03-01T06:06:44;16.57;;;8.70;;
10701;SDS011;5402;50.004;8.246;2023-03-01T06:09:12;15.63;;;8.80;;
10701;SDS011;5402;50.004;8.246;2023-03-01T06:11:39;14.90;;;8.40;;
10701;SDS011;5402;50.004;8.246;2023-03-01T06:14:07;15.23;;;8.30;;
10701;SDS011;5402;50.004;8.246;2023-03-01T06:16:35;14.53;;;8.40;;
10701;SDS011;5402;50.004;8.246;2023-03-01T06:19:04;16.57;;;8.37;;
10701;SDS011;5402;50.004;8.246;2023-03-01T06:21:31;15.03;;;8.63;;
10701;SDS011;5402;50.004;8.246;2023-03-01T06:23:58;14.07;;;8.67;;
10701;SDS011;5402;50.004;8.246;2023-03-01T06:26:26;13.63;;;8.20;;
10701;SDS011;5402;50.004;8.246;2023-03-01T06:28:54;16.23;;;7.83;;
10701;SDS011;5402;50.004;8.246;2023-03-01T06:31:20;12.53;;;7.63;;
10701;SDS011;5402;50.004;8.246;2023-03-01T06:33:47;16.43;;;8.80;;
10701;SDS011;5402;50.004;8.246;2023-03-01T06:36:14;14.13;;;8.37;;
10701;SDS011;5402;50.004;8.246;2023-03-01T06:38:43;15.23;;;8.00;;
10701;SDS011;5402;50.004;8.246;2023-03-01T06:41:10;12.63;;;8.23;;
10701;SDS011;5402;50.004;8.246;2023-03-01T06:43:38;13.77;;;7.77;;
10701;SDS011;5402;50.004;8.246;2023-03-01T06:46:05;15.30;;;7.67;;
10701;SDS011;5402;50.004;8.246;2023-03-01T06:48:32;12.30;;;7.73;;
10701;SDS011;5402;50.004;8.246;2023-03-01T06:51:00;15.80;;;8.10;;
10701;SDS011;5402;50.004;8.246;2023-03-01T06:53:27;14.70;;;7.80;;
10701;SDS011;5402;50.004;8.246;2023-03-01T06:55:54;12.13;;;7.83;;
10701;SDS011;5402;50.004;8.246;2023-03-01T06:58:21;14.97;;;7.13;;
10701;SDS011;5402;50.004;8.246;2023-03-01T07:00:49;11.67;;;7.60;;
10701;SDS011;5402;50.004;8.246;2023-03-01T07:03:16;12.47;;;7.53;;
10701;SDS011;5402;50.004;8.246;2023-03-01T07:05:43;12.53;;;6.97;;
10701;SDS011;5402;50.004;8.246;2023-03-01T07:08:10;15.40;;;7.60;;
10701;SDS011;5402;50.004;8.246;2023-03-01T07:10:37;13.13;;;7.67;;
10701;SDS011;5402;50.004;8.246;2023-03-01T07:13:03;14.00;;;7.63;;
10701;SDS011;5402;50.004;8.246;2023-03-01T07:15:31;11.93;;;8.03;;
10701;SDS011;5402;50.004;8.246;2023-03-01T07:18:00;14.17;;;7.93;;
10701;SDS011;5402;50.004;8.246;2023-03-01T07:20:27;11.87;;;7.40;;
10701;SDS011;5402;50.004;8.246;2023-03-01T07:22:54;13.43;;;7.57;;
10701;SDS011;5402;50.004;8.246;2023-03-01T07:25:23;15.47;;;7.70;;
10701;SDS011;5402;50.004;8.246;2023-03-01T07:27:50;12.73;;;7.03;;
10701;SDS011;5402;50.004;8.246;2023-03-01T07:30:17;15.63;;;8.10;;
10701;SDS011;5402;50.004;8.246;2023-03-01T07:32:44;12.03;;;7.37;;
10701;SDS011;5402;50.004;8.246;2023-03-01T07:35:12;11.87;;;7.63;;
10701;SDS011;5402;50.004;8.246;2023-03-01T07:37:40;11.57;;;7.53;;
10701;SDS011;5402;50.004;8.246;2023-03-01T07:40:08;15.27;;;7.77;;
10701;SDS011;5402;50.004;8.246;2023-03-01T07:42:35;13.23;;;8.03;;
10701;SDS011;5402;50.004;8.246;2023-03-01T07:45:02;12.37;;;7.07;;
10701;SDS011;5402;50.004;8.246;2023-03-01T07:47:30;12.30;;;7.30;;
10701;SDS011;5402;50.004;8.246;2023-03-01T07:49:56;14.33;;;7.87;;
10701;SDS011;5402;50.004;8.246;2023-03-01T07:52:24;11.20;;;7.20;;
10701;SDS011;5402;50.004;8.246;2023-03-01T07:54:51;11.90;;;7.33;;
10701;SDS011;5402;50.004;8.246;2023-03-01T07:57:18;11.50;;;7.73;;
10701;SDS011;5402;50.004;8.246;2023-03-01T07:59:45;12.63;;;7.83;;
10701;SDS011;5402;50.004;8.246;2023-03-01T08:02:13;13.90;;;7.80;;
10701;SDS011;5402;50.004;8.246;2023-03-01T08:04:41;12.53;;;7.03;;
10701;SDS011;5402;50.004;8.246;2023-03-01T08:07:08;12.53;;;7.90;;
10701;SDS011;5402;50.004;8.246;2023-03-01T08:09:36;12.10;;;7.87;;
10701;SDS011;5402;50.004;8.246;2023-03-01T08:12:04;12.23;;;7.37;;
10701;SDS011;5402;50.004;8.246;2023-03-01T08:14:31;11.50;;;7.00;;
10701;SDS011;5402;50.004;8.246;2023-03-01T08:16:58;12.60;;;7.83;;
10701;SDS011;5402;50.004;8.246;2023-03-01T08:19:27;14.70;;;7.83;;
10701;SDS011;5402;50.004;8.246;2023-03-01T08:21:54;12.77;;;7.13;;
10701;SDS011;5402;50.004;8.246;2023-03-01T08:24:23;12.93;;;7.57;;
10701;SDS011;5402;50.004;8.246;2023-03-01T08:26:51;12.30;;;7.70;;
10701;SDS011;5402;50.004;8.246;2023-03-01T08:29:18;13.03;;;7.57;;
10701;SDS011;5402;50.004;8.246;2023-03-01T08:31:45;12.33;;;7.80;;
10701;SDS011;5402;50.004;8.246;2023-03-01T08:34:13;10.53;;;7.13;;
10701;SDS011;5402;50.004;8.246;2023-03-01T08:36:42;14.63;;;7.40;;
10701;SDS011;5402;50.004;8.246;2023-03-01T08:39:10;15.63;;;8.47;;
10701;SDS011;5402;50.004;8.246;2023-03-01T08:41:38;14.57;;;7.50;;
10701;SDS011;5402;50.004;8.246;2023-03-01T08:44:09;13.63;;;7.20;;
10701;SDS011;5402;50.004;8.246;2023-03-01T08:46:38;11.60;;;7.43;;
10701;SDS011;5402;50.004;8.246;2023-03-01T08:49:06;15.67;;;7.40;;
10701;SDS011;5402;50.004;8.246;2023-03-01T08:51:34;12.93;;;7.43;;
10701;SDS011;5402;50.004;8.246;2023-03-01T08:54:02;15.73;;;7.93;;
10701;SDS011;5402;50.004;8.246;2023-03-01T08:56:31;12.33;;;7.23;;
10701;SDS011;5402;50.004;8.246;2023-03-01T08:58:58;11.27;;;6.83;;
10701;SDS011;5402;50.004;8.246;2023-03-01T09:01:26;12.83;;;7.50;;
10701;SDS011;5402;50.004;8.246;2023-03-01T09:03:53;11.53;;;7.57;;
10701;SDS011;5402;50.004;8.246;2023-03-01T09:06:20;15.57;;;7.87;;
10701;SDS011;5402;50.004;8.246;2023-03-01T09:08:47;14.80;;;7.43;;
10701;SDS011;5402;50.004;8.246;2023-03-01T09:11:15;15.77;;;8.53;;
10701;SDS011;5402;50.004;8.246;2023-03-01T09:13:43;14.33;;;7.90;;
10701;SDS011;5402;50.004;8.246;2023-03-01T09:16:11;14.43;;;8.13;;
10701;SDS011;5402;50.004;8.246;2023-03-01T09:18:40;11.77;;;7.60;;
10701;SDS011;5402;50.004;8.246;2023-03-01T09:21:08;13.37;;;7.87;;
10701;SDS011;5402;50.004;8.246;2023-03-01T09:23:37;13.70;;;7.33;;
10701;SDS011;5402;50.004;8.246;2023-03-01T09:26:05;13.73;;;7.57;;
10701;SDS011;5402;50.004;8.246;2023-03-01T09:28:33;13.50;;;7.17;;
10701;SDS011;5402;50.004;8.246;2023-03-01T09:31:01;16.20;;;8.13;;
10701;SDS011;5402;50.004;8.246;2023-03-01T09:33:29;17.27;;;8.40;;
10701;SDS011;5402;50.004;8.246;2023-03-01T09:35:58;14.33;;;7.87;;
10701;SDS011;5402;50.004;8.246;2023-03-01T09:38:26;14.50;;;8.17;;
10701;SDS011;5402;50.004;8.246;2023-03-01T09:40:53;13.30;;;7.77;;
10701;SDS011;5402;50.004;8.246;2023-03-01T09:43:21;12.57;;;8.13;;
10701;SDS011;5402;50.004;8.246;2023-03-01T09:45:54;11.77;;;7.80;;
10701;SDS011;5402;50.004;8.246;2023-03-01T09:48:27;13.00;;;8.23;;
10701;SDS011;5402;50.004;8.246;2023-03-01T09:51:00;13.63;;;8.07;;
10701;SDS011;5402;50.004;8.246;2023-03-01T09:53:32;12.80;;;7.70;;
10701;SDS011;5402;50.004;8.246;2023-03-01T09:56:01;13.47;;;7.83;;
10701;SDS011;5402;50.004;8.246;2023-03-01T09:58:34;12.50;;;7.60;;
10701;SDS011;5402;50.004;8.246;2023-03-01T10:01:14;15.00;;;8.27;;
10701;SDS011;5402;50.004;8.246;2023-03-01T10:04:00;13.27;;;8.47;;
10701;SDS011;5402;50.004;8.246;2023-03-01T10:06:51;11.80;;;7.63;;
10701;SDS011;5402;50.004;8.246;2023-03-01T10:09:27;12.53;;;7.53;;
10701;SDS011;5402;50.004;8.246;2023-03-01T10:11:58;15.80;;;8.47;;
10701;SDS011;5402;50.004;8.246;2023-03-01T10:14:32;12.57;;;8.27;;
10701;SDS011;5402;50.004;8.246;2023-03-01T10:17:02;13.77;;;8.27;;
10701;SDS011;5402;50.004;8.246;2023-03-01T10:19:32;15.80;;;9.30;;
10701;SDS011;5402;50.004;8.246;2023-03-01T10:22:13;13.70;;;8.77;;
10701;SDS011;5402;50.004;8.246;2023-03-01T10:24:46;13.67;;;8.60;;
10701;SDS011;5402;50.004;8.246;2023-03-01T10:27:14;17.97;;;8.77;;
10701;SDS011;5402;50.004;8.246;2023-03-01T10:29:48;12.57;;;8.60;;
10701;SDS011;5402;50.004;8.246;2023-03-01T10:32:20;12.07;;;8.27;;
10701;SDS011;5402;50.004;8.246;2023-03-01T10:34:47;18.50;;;9.03;;
10701;SDS011;5402;50.004;8.246;2023-03-01T10:37:16;12.53;;;8.53;;
10701;SDS011;5402;50.004;8.246;2023-03-01T10:39:55;13.40;;;7.57;;
10701;SDS011;5402;50.004;8.246;2023-03-01T10:42:26;16.20;;;9.07;;
10701;SDS011;5402;50.004;8.246;2023-03-01T10:44:55;13.13;;;8.70;;
10701;SDS011;5402;50.004;8.246;2023-03-01T10:47:22;15.27;;;8.87;;
10701;SDS011;5402;50.004;8.246;2023-03-01T10:49:54;13.20;;;8.93;;
10701;SDS011;5402;50.004;8.246;2023-03-01T10:52:34;12.50;;;8.13;;
10701;SDS011;5402;50.004;8.246;2023-03-01T10:55:03;14.43;;;8.20;;
10701;SDS011;5402;50.004;8.246;2023-03-01T10:57:49;14.07;;;8.80;;
10701;SDS011;5402;50.004;8.246;2023-03-01T11:00:19;14.93;;;8.70;;
10701;SDS011;5402;50.004;8.246;2023-03-01T11:03:00;19.17;;;8.57;;
10701;SDS011;5402;50.004;8.246;2023-03-01T11:05:29;15.23;;;9.23;;
10701;SDS011;5402;50.004;8.246;2023-03-01T11:08:00;14.30;;;8.30;;
10701;SDS011;5402;50.004;8.246;2023-03-01T11:10:29;14.47;;;8.07;;
10701;SDS011;5402;50.004;8.246;2023-03-01T11:15:43;12.93;;;8.27;;
10701;SDS011;5402;50.004;8.246;2023-03-01T11:18:25;11.20;;;7.70;;
10701;SDS011;5402;50.004;8.246;2023-03-01T11:20:53;15.97;;;8.80;;
10701;SDS011;5402;50.004;8.246;2023-03-01T11:23:22;14.97;;;8.07;;
10701;SDS011;5402;50.004;8.246;2023-03-01T11:25:53;11.83;;;8.07;;
10701;SDS011;5402;50.004;8.246;2023-03-01T11:28:22;11.63;;;8.50;;
10701;SDS011;5402;50.004;8.246;2023-03-01T11:30:53;12.07;;;8.00;;
10701;SDS011;5402;50.004;8.246;2023-03-01T11:33:24;12.17;;;8.10;;
10701;SDS011;5402;50.004;8.246;2023-03-01T11:36:01;14.37;;;8.97;;
10701;SDS011;5402;50.004;8.246;2023-03-01T11:38:35;15.63;;;8.47;;
10701;SDS011;5402;50.004;8.246;2023-03-01T11:41:05;12.60;;;8.33;;
10701;SDS011;5402;50.004;8.246;2023-03-01T11:43:36;12.80;;;7.57;;
10701;SDS011;5402;50.004;8.246;2023-03-01T11:46:27;12.23;;;7.87;;
10701;SDS011;5402;50.004;8.246;2023-03-01T11:49:21;13.23;;;7.97;;
10701;SDS011;5402;50.004;8.246;2023-03-01T11:52:08;12.37;;;7.73;;
10701;SDS011;5402;50.004;8.246;2023-03-01T11:54:50;12.37;;;7.53;;
10701;SDS011;5402;50.004;8.246;2023-03-01T11:57:42;15.63;;;8.40;;
10701;SDS011;5402;50.004;8.246;2023-03-01T12:00:23;11.60;;;7.53;;
10701;SDS011;5402;50.004;8.246;2023-03-01T12:05:57;11.90;;;7.50;;
10701;SDS011;5402;50.004;8.246;2023-03-01T12:08:45;12.53;;;7.80;;
10701;SDS011;5402;50.004;8.246;2023-03-01T12:11:19;11.07;;;7.97;;
10701;SDS011;5402;50.004;8.246;2023-03-01T12:14:04;13.40;;;7.90;;
10701;SDS011;5402;50.004;8.246;2023-03-01T12:17:03;10.07;;;7.03;;
10701;SDS011;5402;50.004;8.246;2023-03-01T12:19:49;10.50;;;7.40;;
10701;SDS011;5402;50.004;8.246;2023-03-01T12:22:31;10.63;;;7.13;;
10701;SDS011;5402;50.004;8.246;2023-03-01T12:28:03;12.23;;;7.20;;
10701;SDS011;5402;50.004;8.246;2023-03-01T12:30:46;12.50;;;6.53;;
10701;SDS011;5402;50.004;8.246;2023-03-01T12:33:28;11.00;;;6.87;;
10701;SDS011;5402;50.004;8.246;2023-03-01T12:38:56;10.93;;;6.33;;
10701;SDS011;5402;50.004;8.246;2023-03-01T12:41:38;10.07;;;6.83;;
10701;SDS011;5402;50.004;8.246;2023-03-01T12:44:20;9.50;;;6.10;;
10701;SDS011;5402;50.004;8.246;2023-03-01T12:47:07;9.30;;;6.10;;
10701;SDS011;5402;50.004;8.246;2023-03-01T12:49:44;8.33;;;6.20;;
10701;SDS011;5402;50.004;8.246;2023-03-01T12:52:16;8.57;;;5.63;;
10701;SDS011;5402;50.004;8.246;2023-03-01T12:54:48;8.97;;;5.97;;
10701;SDS011;5402;50.004;8.246;2023-03-01T12:57:24;10.30;;;6.47;;
10701;SDS011;5402;50.004;8.246;2023-03-01T13:00:05;8.07;;;5.40;;
10701;SDS011;5402;50.004;8.246;2023-03-01T13:02:46;9.77;;;5.80;;
10701;SDS011;5402;50.004;8.246;2023-03-01T13:05:21;8.53;;;6.03;;
10701;SDS011;5402;50.004;8.246;2023-03-01T13:07:55;11.77;;;6.67;;
10701;SDS011;5402;50.004;8.246;2023-03-01T13:10:29;8.73;;;5.80;;
10701;SDS011;5402;50.004;8.246;2023-03-01T13:13:01;9.87;;;6.00;;
10701;SDS011;5402;50.004;8.246;2023-03-01T13:15:39;7.63;;;5.57;;
10701;SDS011;5402;50.004;8.246;2023-03-01T13:20:57;9.33;;;5.57;;
10701;SDS011;5402;50.004;8.246;2023-03-01T13:23:27;7.40;;;5.13;;
10701;SDS011;5402;50.004;8.246;2023-03-01T13:37:18;7.60;;;5.20;;
10701;SDS011;5402;50.004;8.246;2023-03-01T13:39:47;7.63;;;5.23;;
10701;SDS011;5402;50.004;8.246;2023-03-01T13:42:31;7.73;;;4.97;;
10701;SDS011;5402;50.004;8.246;2023-03-01T13:45:04;10.17;;;5.70;;
10701;SDS011;5402;50.004;8.246;2023-03-01T13:47:43;7.40;;;5.00;;
10701;SDS011;5402;50.004;8.246;2023-03-01T13:50:16;9.57;;;4.97;;
10701;SDS011;5402;50.004;8.246;2023-03-01T13:52:48;10.00;;;5.10;;
10701;SDS011;5402;50.004;8.246;2023-03-01T13:55:19;9.93;;;5.77;;
10701;SDS011;5402;50.004;8.246;2023-03-01T13:57:50;8.57;;;5.47;;
10701;SDS011;5402;50.004;8.246;2023-03-01T14:00:30;8.10;;;5.60;;
10701;SDS011;5402;50.004;8.246;2023-03-01T14:03:05;11.47;;;5.77;;
10701;SDS011;5402;50.004;8.246;2023-03-01T14:05:36;9.33;;;5.47;;
10701;SDS011;5402;50.004;8.246;2023-03-01T14:08:04;8.23;;;5.20;;
10701;SDS011;5402;50.004;8.246;2023-03-01T14:10:35;9.57;;;5.40;;
10701;SDS011;5402;50.004;8.246;2023-03-01T14:13:12;8.93;;;5.90;;
10701;SDS011;5402;50.004;8.246;2023-03-01T14:15:57;9.63;;;5.60;;
10701;SDS011;5402;50.004;8.246;2023-03-01T14:18:40;8.23;;;5.33;;
10701;SDS011;5402;50.004;8.246;2023-03-01T14:21:13;7.07;;;4.97;;
10701;SDS011;5402;50.004;8.246;2023-03-01T14:23:41;7.50;;;4.63;;
10701;SDS011;5402;50.004;8.246;2023-03-01T14:26:08;8.83;;;5.27;;
10701;SDS011;5402;50.004;8.246;2023-03-01T14:28:37;8.63;;;5.77;;
10701;SDS011;5402;50.004;8.246;2023-03-01T14:34:00;10.17;;;5.23;;
10701;SDS011;5402;50.004;8.246;2023-03-01T14:36:28;9.63;;;5.63;;
10701;SDS011;5402;50.004;8.246;2023-03-01T14:38:57;7.27;;;5.13;;
10701;SDS011;5402;50.004;8.246;2023-03-01T14:41:29;7.17;;;5.17;;
10701;SDS011;5402;50.004;8.246;2023-03-01T14:44:00;8.20;;;5.30;;
10701;SDS011;5402;50.004;8.246;2023-03-01T14:46:30;7.63;;;5.47;;
10701;SDS011;5402;50.004;8.246;2023-03-01T14:49:02;9.87;;;5.73;;
10701;SDS011;5402;50.004;8.246;2023-03-01T14:51:34;6.57;;;5.30;;
10701;SDS011;5402;50.004;8.246;2023-03-01T14:54:03;8.43;;;5.43;;
10701;SDS011;5402;50.004;8.246;2023-03-01T14:56:42;8.47;;;5.50;;
10701;SDS011;5402;50.004;8.246;2023-03-01T14:59:11;8.20;;;5.57;;
10701;SDS011;5402;50.004;8.246;2023-03-01T15:01:38;7.90;;;5.03;;
10701;SDS011;5402;50.004;8.246;2023-03-01T15:04:07;10.63;;;5.20;;
10701;SDS011;5402;50.004;8.246;2023-03-01T15:06:38;6.93;;;5.53;;
10701;SDS011;5402;50.004;8.246;2023-03-01T15:09:05;10.40;;;6.00;;
10701;SDS011;5402;50.004;8.246;2023-03-01T15:11:33;8.87;;;5.80;;
10701;SDS011;5402;50.004;8.246;2023-03-01T15:14:01;9.13;;;5.10;;
10701;SDS011;5402;50.004;8.246;2023-03-01T15:16:52;10.90;;;4.97;;
10701;SDS011;5402;50.004;8.246;2023-03-01T15:19:20;7.93;;;4.40;;
10701;SDS011;5402;50.004;8.246;2023-03-01T15:21:49;7.70;;;4.93;;
10701;SDS011;5402;50.004;8.246;2023-03-01T15:24:17;12.40;;;5.57;;
10701;SDS011;5402;50.004;8.246;2023-03-01T15:26:50;7.17;;;4.93;;
10701;SDS011;5402;50.004;8.246;2023-03-01T15:29:21;7.20;;;5.23;;
10701;SDS011;5402;50.004;8.246;2023-03-01T15:31:55;8.80;;;5.13;;
10701;SDS011;5402;50.004;8.246;2023-03-01T15:34:25;7.37;;;4.63;;
10701;SDS011;5402;50.004;8.246;2023-03-01T15:36:55;8.10;;;4.73;;